Farina, Illinois
Current Conditions -  °F | °C
As of 8:15 AM on Thursday 27 Nov 2014 (Local Time) from KFOA Reporting Station
Haze Haze  
Wind Chill: 14°   Ceiling: Unl
Heat Index: 24°   Visibility: 5mi
Dew Point: 21°   Wind: 10mph
Humidity: 87%   Direction: 300°WNW
Pressure: 30.41"   Gusts: NA
Location:  38.83°N, 88.77°W
Report Text: KFOA 271415Z AUTO 30009KT 5SM BR CLR M04/M06 A3041 RMK AO2 T10431061
Loading
Personal Weather Stations






























Interactive Weather Map New forecast layout! Learn more

10-Day Weather Forecast

Advertisements
Track Severe Weather on mobile